Time;durP1;ratioP1;P1;durP2;ratioP2;P2;SDS_P1;SDS_P2;PMS_P1;PMS_P2;Temp;Humidity;BMP_temperature;BMP_pressure;BME280_temperature;BME280_humidity;BME280_pressure;Samples;Min_cycle;Max_cycle;Signal;HPM_P1;HPM_P2
2023/01/13 00:01:14;;;;;;;2.60;0.90;;;;;;;10.31;77.17;100077.56;6178175;23;20542;-87
2023/01/13 00:03:41;;;;;;;4.07;1.13;;;;;;;10.33;77.19;100075.59;6178203;23;20045;-88
2023/01/13 00:06:13;;;;;;;4.20;1.00;;;;;;;10.32;77.31;100066.00;6164098;23;20105;-87
2023/01/13 00:08:39;;;;;;;3.08;1.08;;;;;;;10.34;77.39;100070.13;6180293;23;20020;-90
2023/01/13 00:11:05;;;;;;;2.63;0.90;;;;;;;10.33;77.13;100057.09;6154087;23;20017;-89
2023/01/13 00:13:34;;;;;;;3.15;0.90;;;;;;;10.32;77.51;100058.91;6115742;23;20020;-89
2023/01/13 00:16:03;;;;;;;2.88;1.10;;;;;;;10.31;77.17;100065.16;6160856;23;20053;-88
2023/01/13 00:18:29;;;;;;;4.47;0.85;;;;;;;10.34;77.55;100050.81;6178531;23;20040;-89
2023/01/13 00:21:03;;;;;;;2.03;0.90;;;;;;;10.29;77.50;100053.94;6154515;23;20025;-87
2023/01/13 00:23:30;;;;;;;2.63;0.98;;;;;;;10.31;77.37;100057.25;6179415;23;20393;-89
2023/01/13 00:26:01;;;;;;;3.90;0.90;;;;;;;10.35;77.43;100058.59;6178396;23;20017;-88
2023/01/13 00:28:26;;;;;;;2.97;0.80;;;;;;;10.32;77.55;100055.41;6152890;23;20048;-89
2023/01/13 00:30:56;;;;;;;2.08;0.63;;;;;;;10.36;77.42;100048.81;6153327;23;20017;-88
2023/01/13 00:33:22;;;;;;;2.45;0.75;;;;;;;10.42;77.43;100050.84;6130707;23;20450;-89
2023/01/13 00:35:57;;;;;;;2.47;1.00;;;;;;;10.44;77.59;100056.78;6178510;23;20021;-88
2023/01/13 00:38:26;;;;;;;2.45;0.82;;;;;;;10.36;78.00;100054.13;6139148;23;20014;-89
2023/01/13 00:41:00;;;;;;;3.50;0.90;;;;;;;10.35;78.45;100045.38;6178674;23;20021;-89
2023/01/13 00:43:27;;;;;;;2.90;0.88;;;;;;;10.33;78.98;100042.06;6145619;23;20108;-88
2023/01/13 00:45:57;;;;;;;5.00;0.98;;;;;;;10.33;79.14;100035.94;6179210;23;20393;-89
2023/01/13 00:48:23;;;;;;;2.20;1.05;;;;;;;10.33;79.34;100043.88;6151987;23;20072;-89
2023/01/13 00:51:01;;;;;;;4.03;1.00;;;;;;;10.30;80.03;100031.81;6142411;23;20013;-90
2023/01/13 00:53:31;;;;;;;2.25;0.88;;;;;;;10.25;80.31;100035.88;6154486;23;20025;-88
2023/01/13 00:56:08;;;;;;;3.28;1.05;;;;;;;10.29;80.38;100030.16;6153381;23;20053;-89
2023/01/13 00:58:34;;;;;;;1.85;0.90;;;;;;;10.25;80.23;100020.88;6152853;23;20018;-88
2023/01/13 01:01:05;;;;;;;3.67;1.08;;;;;;;10.26;80.33;100017.22;6178759;23;20025;-88
2023/01/13 01:03:31;;;;;;;2.85;0.93;;;;;;;10.26;80.32;100019.88;6178171;23;20029;-89
2023/01/13 01:06:02;;;;;;;3.60;0.90;;;;;;;10.25;80.41;100018.22;6119815;23;20013;-88
2023/01/13 01:08:27;;;;;;;3.90;1.00;;;;;;;10.26;80.42;100011.13;6153702;23;20040;-90
2023/01/13 01:11:00;;;;;;;1.98;0.70;;;;;;;10.22;80.28;100007.97;6153454;23;20017;-88
2023/01/13 01:13:27;;;;;;;5.22;1.08;;;;;;;10.26;80.36;99988.16;6176654;23;20226;-89
2023/01/13 01:15:53;;;;;;;2.50;0.98;;;;;;;10.23;80.22;99991.13;6178971;23;20035;-88
2023/01/13 01:18:19;;;;;;;2.75;1.00;;;;;;;10.31;80.04;100000.91;6143276;23;20049;-88
2023/01/13 01:20:44;;;;;;;2.85;1.20;;;;;;;10.25;80.35;99999.75;6181141;23;20385;-89
2023/01/13 01:23:09;;;;;;;2.40;0.80;;;;;;;10.23;80.67;99988.50;6153938;23;20125;-87
2023/01/13 01:25:35;;;;;;;3.95;0.90;;;;;;;10.31;80.54;100000.91;6179974;23;20039;-88
2023/01/13 01:28:00;;;;;;;2.88;0.90;;;;;;;10.30;80.59;100015.97;6181204;23;20014;-88
2023/01/13 01:30:26;;;;;;;3.15;1.00;;;;;;;10.31;80.66;100014.97;6180061;23;20016;-88
2023/01/13 01:32:51;;;;;;;3.25;1.20;;;;;;;10.29;80.52;100016.09;6156936;23;20022;-88
2023/01/13 01:35:16;;;;;;;1.73;1.00;;;;;;;10.26;81.00;100008.47;6181094;23;20029;-88
2023/01/13 01:37:42;;;;;;;3.28;1.00;;;;;;;10.24;81.08;100000.72;6155630;23;20103;-89
2023/01/13 01:40:09;;;;;;;3.40;0.93;;;;;;;10.27;81.10;100008.31;6179714;23;20021;-89
2023/01/13 01:45:22;;;;;;;2.53;0.80;;;;;;;10.33;80.53;100004.25;6154401;23;20083;-89
2023/01/13 01:47:55;;;;;;;3.58;1.13;;;;;;;10.32;81.09;99995.50;6179913;23;20082;-88
2023/01/13 01:50:23;;;;;;;2.30;1.00;;;;;;;10.26;80.80;99985.53;6156111;23;20017;-87
2023/01/13 01:53:12;;;;;;;2.20;0.90;;;;;;;10.28;80.60;99991.50;6128660;23;20021;-88
2023/01/13 01:55:42;;;;;;;1.77;0.70;;;;;;;10.30;80.93;99988.72;6161531;23;20028;-88
2023/01/13 01:58:26;;;;;;;3.38;0.90;;;;;;;10.29;80.63;99977.28;6155364;23;20044;-88
2023/01/13 02:00:53;;;;;;;1.52;0.80;;;;;;;10.32;80.89;99982.28;6173992;23;20437;-88
2023/01/13 02:03:20;;;;;;;2.35;0.90;;;;;;;10.26;81.43;99977.59;6170279;23;20031;-89
2023/01/13 02:05:46;;;;;;;2.22;0.75;;;;;;;10.24;81.46;99974.28;6156020;23;20208;-88
2023/01/13 02:08:14;;;;;;;3.38;0.93;;;;;;;10.30;81.50;99978.16;6170524;23;20037;-89
2023/01/13 02:10:44;;;;;;;2.13;0.60;;;;;;;10.26;81.74;99979.41;6182452;23;20025;-89
2023/01/13 02:13:12;;;;;;;2.00;0.70;;;;;;;10.23;81.89;99975.28;6161224;23;20086;-90
2023/01/13 02:15:50;;;;;;;2.22;0.65;;;;;;;10.21;81.86;99977.25;6174180;23;20013;-89
2023/01/13 02:18:26;;;;;;;1.98;0.70;;;;;;;10.23;82.14;99977.13;6181670;23;20041;-90
2023/01/13 02:21:12;;;;;;;2.55;0.90;;;;;;;10.21;82.09;99972.78;6182016;23;20022;-87
2023/01/13 02:27:02;;;;;;;2.25;0.80;;;;;;;10.17;82.43;99966.19;6156830;23;20981;-89
2023/01/13 02:32:46;;;;;;;2.90;1.00;;;;;;;10.05;83.64;99967.47;6144407;23;20025;-88
2023/01/13 02:35:33;;;;;;;3.83;0.90;;;;;;;10.04;83.31;99963.19;6183027;23;20276;-88
2023/01/13 02:38:00;;;;;;;3.15;1.10;;;;;;;10.03;83.84;99960.72;6158613;23;20048;-89
2023/01/13 02:44:05;;;;;;;2.35;0.93;;;;;;;9.95;84.32;99959.69;6075437;23;20051;-89
2023/01/13 02:46:59;;;;;;;3.67;1.02;;;;;;;9.89;84.31;99941.03;6180179;23;20441;-88
2023/01/13 02:49:33;;;;;;;1.50;0.80;;;;;;;9.88;84.43;99949.97;6146884;23;20013;-89
2023/01/13 02:52:11;;;;;;;2.13;0.93;;;;;;;9.86;84.65;99933.44;6157817;23;20022;-88
2023/01/13 02:54:41;;;;;;;2.50;0.82;;;;;;;9.87;84.82;99932.47;6181950;23;20282;-89
2023/01/13 02:57:10;;;;;;;1.30;0.80;;;;;;;9.83;85.14;99931.94;6158275;23;20378;-89
2023/01/13 02:59:39;;;;;;;2.33;0.90;;;;;;;9.85;84.52;99923.88;6172914;23;20013;-89
2023/01/13 03:02:09;;;;;;;1.58;0.80;;;;;;;9.81;85.29;99925.19;6166572;23;20482;-88
2023/01/13 03:04:45;;;;;;;2.40;0.90;;;;;;;9.75;85.23;99916.94;6180108;23;20013;-88
2023/01/13 03:07:29;;;;;;;1.98;0.80;;;;;;;9.75;85.04;99914.28;6155408;23;20037;-88
2023/01/13 03:10:09;;;;;;;3.78;1.08;;;;;;;9.75;84.99;99916.94;6180778;23;20106;-89
2023/01/13 03:12:50;;;;;;;2.65;0.75;;;;;;;9.71;85.09;99914.75;6117956;23;20014;-88
2023/01/13 03:15:39;;;;;;;2.25;0.80;;;;;;;9.78;84.84;99911.31;6177619;23;20500;-88
2023/01/13 03:18:24;;;;;;;2.70;0.77;;;;;;;9.73;85.24;99907.50;6176060;23;20036;-89
2023/01/13 03:21:04;;;;;;;3.47;0.80;;;;;;;9.76;84.87;99909.81;6181195;23;20377;-90
2023/01/13 03:23:42;;;;;;;3.20;1.10;;;;;;;9.76;84.90;99908.00;6147048;23;20017;-89
2023/01/13 03:26:23;;;;;;;2.08;0.82;;;;;;;9.76;85.02;99901.91;6144063;23;20010;-88
2023/01/13 03:28:55;;;;;;;1.83;0.85;;;;;;;9.81;84.83;99896.13;6157342;23;20246;-88
2023/01/13 03:31:32;;;;;;;2.05;0.80;;;;;;;9.83;84.53;99889.69;6182285;23;20013;-90
2023/01/13 03:34:03;;;;;;;1.42;0.70;;;;;;;9.84;84.64;99903.72;6155665;23;20037;-87
2023/01/13 03:36:31;;;;;;;3.63;0.80;;;;;;;9.79;85.09;99902.38;6179198;23;20030;-88
2023/01/13 03:39:05;;;;;;;3.88;1.15;;;;;;;9.81;85.22;99896.13;6155745;23;20021;-89
2023/01/13 03:41:56;;;;;;;3.65;0.90;;;;;;;9.80;85.64;99908.53;6155065;23;20018;-88
2023/01/13 03:44:31;;;;;;;1.55;0.70;;;;;;;9.81;85.41;99914.63;6177488;23;20330;-89
2023/01/13 03:47:25;;;;;;;1.92;0.90;;;;;;;9.75;86.14;99911.66;6171517;23;20021;-88
2023/01/13 03:50:08;;;;;;;1.65;0.65;;;;;;;9.75;86.26;99894.97;6122352;23;20049;-87
2023/01/13 03:52:42;;;;;;;2.22;0.95;;;;;;;9.78;86.26;99899.94;6154765;23;20037;-89
2023/01/13 03:55:14;;;;;;;3.45;1.00;;;;;;;9.74;86.69;99894.13;6156473;23;20017;-89
2023/01/13 03:58:05;;;;;;;1.58;0.65;;;;;;;9.70;86.82;99894.63;6178660;23;20021;-88
2023/01/13 04:00:36;;;;;;;3.17;0.80;;;;;;;9.65;87.11;99878.44;6179315;23;20006;-89
2023/01/13 04:03:21;;;;;;;2.58;1.27;;;;;;;9.68;86.79;99889.50;6170786;23;20252;-89
2023/01/13 04:05:53;;;;;;;1.48;0.60;;;;;;;9.67;86.71;99884.38;6178508;23;20020;-89
2023/01/13 04:08:22;;;;;;;1.27;0.60;;;;;;;9.68;87.06;99878.13;6151317;23;20020;-89
2023/01/13 04:10:57;;;;;;;1.38;0.68;;;;;;;9.68;86.73;99868.41;6153956;23;20029;-87
2023/01/13 04:13:29;;;;;;;1.42;0.70;;;;;;;9.72;86.65;99879.44;6152909;23;20041;-89
2023/01/13 04:15:55;;;;;;;3.58;0.80;;;;;;;9.70;86.73;99879.63;6154405;23;20070;-88
2023/01/13 04:18:24;;;;;;;2.58;0.85;;;;;;;9.69;86.37;99874.50;6154555;23;20044;-88
2023/01/13 04:20:52;;;;;;;2.83;0.90;;;;;;;9.71;86.04;99862.78;6148765;23;20075;-87
2023/01/13 04:23:19;;;;;;;1.58;0.68;;;;;;;9.73;85.84;99860.00;6177025;23;20013;-88
2023/01/13 04:25:45;;;;;;;2.25;0.90;;;;;;;9.76;85.96;99864.94;6154011;23;20022;-89
2023/01/13 04:28:14;;;;;;;1.75;0.60;;;;;;;9.78;85.87;99861.16;6142911;23;20157;-89
2023/01/13 04:30:40;;;;;;;2.05;1.08;;;;;;;9.75;85.45;99858.84;6177263;23;20013;-89
2023/01/13 04:33:05;;;;;;;1.65;0.70;;;;;;;9.82;85.30;99866.94;6177063;23;20045;-89
2023/01/13 04:35:32;;;;;;;2.25;0.93;;;;;;;9.85;84.91;99861.31;6152429;23;20454;-89
2023/01/13 04:38:00;;;;;;;1.75;0.77;;;;;;;9.85;84.91;99863.97;6177890;23;20037;-89
2023/01/13 04:40:26;;;;;;;1.65;0.70;;;;;;;9.87;84.37;99861.16;6162600;23;20026;-89
2023/01/13 04:42:53;;;;;;;3.67;0.90;;;;;;;9.91;84.14;99857.19;6168298;23;20031;-89
2023/01/13 04:45:18;;;;;;;1.10;0.70;;;;;;;9.89;83.88;99860.00;6169475;23;20059;-87
2023/01/13 04:47:46;;;;;;;2.17;0.75;;;;;;;9.98;83.72;99855.53;6149047;23;20041;-89
2023/01/13 04:50:13;;;;;;;3.90;0.75;;;;;;;9.98;83.67;99853.72;6149646;23;20017;-89
2023/01/13 04:52:39;;;;;;;1.70;0.80;;;;;;;10.00;83.27;99869.41;6177766;23;20017;-88
2023/01/13 04:55:05;;;;;;;2.38;0.75;;;;;;;9.99;83.20;99851.94;6170687;23;20311;-88
2023/01/13 04:57:33;;;;;;;2.28;0.77;;;;;;;10.02;82.82;99850.78;6165343;23;20213;-90
2023/01/13 05:00:00;;;;;;;2.15;0.95;;;;;;;10.04;82.55;99854.91;6179341;23;20462;-87
2023/01/13 05:02:26;;;;;;;1.50;0.60;;;;;;;10.09;82.54;99849.13;6177757;23;20414;-88
2023/01/13 05:04:52;;;;;;;3.00;0.90;;;;;;;10.09;81.80;99849.94;6179057;23;20066;-88
2023/01/13 05:07:17;;;;;;;1.25;0.60;;;;;;;10.13;81.54;99853.06;6179857;23;20020;-88
2023/01/13 05:09:43;;;;;;;1.30;0.68;;;;;;;10.12;81.53;99849.59;6154929;23;20017;-89
2023/01/13 05:17:38;;;;;;;1.90;0.75;;;;;;;10.19;80.54;99829.47;6150874;23;20063;-89
2023/01/13 05:20:05;;;;;;;3.40;0.80;;;;;;;10.23;80.23;99832.59;6155143;23;20020;-88
2023/01/13 05:25:21;;;;;;;1.75;0.60;;;;;;;10.23;80.24;99831.78;6159641;23;20033;-88
2023/01/13 05:27:58;;;;;;;;;;;;;;;10.25;79.74;99835.91;6158051;23;20326;-89
2023/01/13 05:30:31;;;;;;;2.85;0.90;;;;;;;10.22;79.67;99823.00;6156530;23;19999;-87
2023/01/13 05:32:56;;;;;;;2.08;0.70;;;;;;;10.27;79.20;99825.97;6155447;23;20072;-89
2023/01/13 05:35:23;;;;;;;2.42;0.82;;;;;;;10.30;79.47;99820.41;6148050;23;20013;-88
2023/01/13 05:37:48;;;;;;;1.05;0.52;;;;;;;10.33;78.98;99821.88;6157627;23;20013;-88
2023/01/13 05:43:19;;;;;;;1.70;0.70;;;;;;;10.34;78.99;99820.88;6175852;23;20075;-89
2023/01/13 05:45:58;;;;;;;1.05;0.50;;;;;;;10.32;79.05;99821.06;6182527;23;20021;-88
2023/01/13 05:48:42;;;;;;;1.85;0.75;;;;;;;10.34;78.94;99827.00;6171813;23;20018;-89
2023/01/13 05:51:11;;;;;;;2.40;0.77;;;;;;;10.34;78.84;99827.00;6178521;23;20014;-90
2023/01/13 05:53:39;;;;;;;1.08;0.70;;;;;;;10.36;78.86;99829.47;6156790;23;20068;-88
2023/01/13 05:56:07;;;;;;;1.30;0.50;;;;;;;10.34;78.95;99827.00;6155136;23;20476;-89
2023/01/13 05:58:34;;;;;;;1.83;0.63;;;;;;;10.37;78.77;99824.03;6129578;23;20006;-90
2023/01/13 06:01:03;;;;;;;1.38;0.80;;;;;;;10.40;78.41;99830.81;6158914;23;20330;-88
2023/01/13 06:03:29;;;;;;;1.48;0.70;;;;;;;10.36;78.54;99824.19;6153741;23;20357;-89
2023/01/13 06:05:58;;;;;;;3.58;0.80;;;;;;;10.36;79.04;99825.00;6155751;23;20021;-89
2023/01/13 06:08:26;;;;;;;0.70;0.60;;;;;;;10.35;78.97;99823.38;6177325;23;20036;-88
2023/01/13 06:10:53;;;;;;;2.15;0.80;;;;;;;10.35;78.73;99833.94;6154749;23;20116;-88
2023/01/13 06:13:20;;;;;;;1.38;0.70;;;;;;;10.33;79.07;99830.63;6181159;23;20506;-89
2023/01/13 06:15:46;;;;;;;1.38;0.70;;;;;;;10.35;78.77;99839.22;6155769;23;20039;-89
2023/01/13 06:18:13;;;;;;;1.70;0.60;;;;;;;10.25;79.45;99851.75;6157967;23;20018;-88
2023/01/13 06:20:38;;;;;;;1.77;0.70;;;;;;;10.14;80.54;99847.63;6156142;23;20507;-89
2023/01/13 06:23:10;;;;;;;2.38;0.68;;;;;;;9.92;81.65;99848.31;6155449;23;20017;-88
2023/01/13 06:25:58;;;;;;;2.95;1.08;;;;;;;9.76;84.58;99859.66;6180255;23;20013;-90
2023/01/13 06:28:24;;;;;;;1.65;0.75;;;;;;;9.62;83.95;99857.66;6167978;23;20025;-89
2023/01/13 06:30:58;;;;;;;1.25;0.70;;;;;;;9.53;84.91;99862.06;6162000;23;20017;-89
2023/01/13 06:33:32;;;;;;;2.20;0.70;;;;;;;9.47;85.55;99868.84;6134958;23;20095;-90
2023/01/13 06:36:02;;;;;;;1.90;0.70;;;;;;;9.43;86.57;99856.94;6147473;23;20084;-89
2023/01/13 06:38:34;;;;;;;2.55;0.70;;;;;;;9.36;86.37;99846.19;6139210;23;20168;-88
2023/01/13 06:41:02;;;;;;;1.05;0.60;;;;;;;9.36;86.86;99863.84;6153354;23;20059;-90
2023/01/13 06:43:29;;;;;;;1.90;0.85;;;;;;;9.34;86.91;99861.38;6151783;23;20068;-89
2023/01/13 06:46:07;;;;;;;2.80;0.90;;;;;;;9.33;87.32;99864.19;6178527;23;20018;-90
2023/01/13 06:48:41;;;;;;;2.38;0.85;;;;;;;9.24;88.61;99871.22;6136800;23;20044;-89
2023/01/13 06:51:24;;;;;;;1.80;0.75;;;;;;;9.24;87.89;99886.22;6148219;23;20021;-90
2023/01/13 06:54:02;;;;;;;2.00;0.73;;;;;;;9.14;90.96;99910.09;6146168;23;20084;-90
2023/01/13 06:56:54;;;;;;;1.42;0.70;;;;;;;9.01;95.26;99959.78;6152009;23;20021;-90
2023/01/13 06:59:55;;;;;;;2.70;0.90;;;;;;;9.00;92.42;99943.16;6160350;23;20014;-90
2023/01/13 07:02:38;;;;;;;2.95;1.00;;;;;;;9.03;92.18;99932.28;6161369;23;20014;-90
2023/01/13 07:05:17;;;;;;;1.95;0.98;;;;;;;8.92;96.57;99936.03;6164513;23;20019;-90
2023/01/13 07:07:49;;;;;;;2.90;0.90;;;;;;;8.98;92.44;99949.56;6163093;23;20013;-91
2023/01/13 07:10:29;;;;;;;3.85;1.05;;;;;;;8.95;92.59;99940.16;6159646;23;20482;-91
2023/01/13 07:16:18;;;;;;;2.45;0.70;;;;;;;8.92;92.93;99933.38;6161364;23;20021;-91
2023/01/13 07:19:02;;;;;;;1.48;0.80;;;;;;;8.86;93.33;99931.34;6162124;23;20020;-91
2023/01/13 07:22:04;;;;;;;1.67;0.50;;;;;;;8.81;93.25;99932.81;6178446;23;20019;-92
2023/01/13 07:24:46;;;;;;;1.30;0.63;;;;;;;8.83;92.97;99942.22;6136731;23;20017;-91
2023/01/13 07:27:26;;;;;;;1.92;0.70;;;;;;;8.84;92.84;99943.91;6146530;23;20457;-90
2023/01/13 07:29:55;;;;;;;2.20;0.77;;;;;;;8.86;93.87;99946.34;6162453;23;20047;-91
2023/01/13 07:32:29;;;;;;;2.35;0.98;;;;;;;8.81;94.50;99951.28;6125972;23;20018;-91
2023/01/13 07:35:04;;;;;;;1.73;1.02;;;;;;;8.80;93.81;99952.25;6147215;23;20047;-91
2023/01/13 07:37:36;;;;;;;1.08;0.70;;;;;;;8.82;93.80;99960.81;6164482;23;20013;-89
2023/01/13 07:40:09;;;;;;;1.33;0.90;;;;;;;8.75;93.31;99951.88;6163170;23;20060;-91
2023/01/13 07:45:26;;;;;;;0.63;0.40;;;;;;;8.69;92.18;99969.16;6156846;23;20024;-89
2023/01/13 07:48:18;;;;;;;1.40;0.60;;;;;;;8.59;92.33;99979.78;6175798;23;20073;-90
2023/01/13 07:50:59;;;;;;;3.53;0.70;;;;;;;8.55;91.51;99964.41;6164817;23;20052;-90
2023/01/13 07:53:29;;;;;;;1.80;0.65;;;;;;;8.48;91.35;99958.94;6173038;23;20017;-90
2023/01/13 07:56:02;;;;;;;4.63;0.80;;;;;;;8.46;91.31;99971.41;6169575;23;20028;-90
2023/01/13 07:58:40;;;;;;;1.90;0.80;;;;;;;8.52;91.08;99964.72;6147711;23;20017;-88
2023/01/13 08:01:22;;;;;;;1.92;0.60;;;;;;;8.41;91.17;99957.88;6182730;23;20033;-91
2023/01/13 08:04:00;;;;;;;2.22;0.70;;;;;;;8.36;91.22;99952.22;6159534;23;20052;-91
2023/01/13 08:06:31;;;;;;;1.27;0.50;;;;;;;8.36;91.17;99947.75;6171493;23;20015;-91
2023/01/13 08:09:12;;;;;;;1.77;0.60;;;;;;;8.38;91.13;99964.25;6171009;23;20025;-91
2023/01/13 08:13:16;;;;;;;1.53;0.60;;;;;;;8.34;90.65;99991.88;6166429;23;20017;-90
2023/01/13 08:14:37;;;;;;;;;;;;;;;8.29;90.86;100004.66;6147749;23;20012;-92
2023/01/13 08:17:24;;;;;;;2.15;0.70;;;;;;;8.28;90.51;100011.75;6174385;23;19948;-91
2023/01/13 08:20:05;;;;;;;1.67;0.70;;;;;;;8.28;90.87;100026.72;6174273;23;20013;-91
2023/01/13 08:22:51;;;;;;;0.77;0.52;;;;;;;8.24;90.23;100028.81;6160107;23;20013;-90
2023/01/13 08:25:26;;;;;;;4.00;0.80;;;;;;;8.24;90.40;100041.97;6182569;23;20025;-89
2023/01/13 08:27:59;;;;;;;1.60;0.50;;;;;;;8.25;91.09;100048.94;6163294;23;20160;-92
2023/01/13 08:30:44;;;;;;;1.33;0.60;;;;;;;8.28;90.04;100046.00;6166780;23;19997;-90
2023/01/13 08:33:19;;;;;;;2.80;0.80;;;;;;;8.35;89.00;100050.66;6168501;23;20025;-91
2023/01/13 08:36:02;;;;;;;3.38;0.70;;;;;;;8.33;89.02;100045.53;6167315;23;20524;-91
2023/01/13 08:38:34;;;;;;;3.97;1.00;;;;;;;8.36;88.33;100060.22;6146157;23;20048;-91
2023/01/13 08:44:35;;;;;;;1.65;0.60;;;;;;;8.34;87.41;100078.78;6151488;23;20020;-90
2023/01/13 08:47:06;;;;;;;3.17;1.05;;;;;;;8.39;86.68;100067.81;6177633;23;20229;-91
2023/01/13 08:49:49;;;;;;;5.30;1.02;;;;;;;8.43;86.80;100067.41;6180153;23;20017;-89
2023/01/13 08:52:30;;;;;;;3.17;1.10;;;;;;;8.52;85.65;100072.78;6150714;23;20033;-90
2023/01/13 08:55:09;;;;;;;5.32;1.17;;;;;;;8.58;85.95;100078.28;6142717;23;20048;-91
2023/01/13 08:57:38;;;;;;;4.80;0.90;;;;;;;8.60;84.52;100064.94;6179914;23;20006;-90
2023/01/13 09:00:13;;;;;;;4.07;1.02;;;;;;;8.68;84.34;100075.56;6184068;23;20028;-90
2023/01/13 09:02:51;;;;;;;2.60;0.90;;;;;;;8.68;84.53;100080.84;6166629;23;20013;-90
2023/01/13 09:05:30;;;;;;;3.95;1.00;;;;;;;8.72;84.04;100084.81;6175407;23;20028;-90
2023/01/13 09:08:17;;;;;;;2.67;1.13;;;;;;;8.74;83.45;100089.94;6143785;23;20331;-91
2023/01/13 09:10:48;;;;;;;2.78;1.10;;;;;;;8.78;83.76;100088.66;6169287;23;20026;-91
2023/01/13 09:13:20;;;;;;;2.88;0.80;;;;;;;8.86;84.00;100080.81;6173957;23;20025;-91
2023/01/13 09:15:55;;;;;;;3.30;0.98;;;;;;;8.90;83.43;100079.53;6163952;23;20072;-90
2023/01/13 09:18:28;;;;;;;6.07;1.45;;;;;;;8.91;81.92;100100.50;6168633;23;20020;-90
2023/01/13 09:21:00;;;;;;;3.85;1.00;;;;;;;8.96;82.30;100105.28;6144422;23;20020;-90
2023/01/13 09:23:43;;;;;;;4.63;1.27;;;;;;;9.08;81.97;100103.25;6147705;23;20053;-90
2023/01/13 09:26:39;;;;;;;4.82;1.73;;;;;;;9.28;82.21;100107.38;6154002;23;20012;-90
2023/01/13 09:29:28;;;;;;;6.53;1.20;;;;;;;9.45;80.50;100110.97;6154148;23;20036;-89
2023/01/13 09:32:04;;;;;;;4.22;1.08;;;;;;;9.48;79.82;100101.91;6168558;23;20036;-91
2023/01/13 09:34:59;;;;;;;2.80;0.80;;;;;;;9.52;80.95;100113.81;6152067;23;20025;-92
2023/01/13 09:37:32;;;;;;;3.70;0.93;;;;;;;9.50;80.60;100116.59;6187607;23;20027;-90
2023/01/13 09:40:01;;;;;;;2.45;0.70;;;;;;;9.46;80.16;100117.06;6167920;23;20001;-89
2023/01/13 09:46:00;;;;;;;4.07;1.00;;;;;;;9.43;80.79;100131.38;6178770;23;20032;-91
2023/01/13 09:48:31;;;;;;;4.88;1.10;;;;;;;9.49;80.66;100127.31;6181080;23;20036;-91
2023/01/13 09:51:17;;;;;;;7.68;1.30;;;;;;;9.58;80.80;100110.53;6192137;23;20012;-88
2023/01/13 09:53:49;;;;;;;3.60;1.23;;;;;;;9.70;80.24;100119.03;6212767;23;20499;-88
2023/01/13 09:56:15;;;;;;;4.93;1.38;;;;;;;9.71;79.73;100128.63;6210334;23;20445;-88
2023/01/13 09:58:47;;;;;;;3.40;1.00;;;;;;;9.77;80.02;100122.69;6210800;23;20023;-88
2023/01/13 10:01:26;;;;;;;2.20;0.85;;;;;;;9.80;80.14;100132.97;6212622;23;20059;-88
2023/01/13 10:03:52;;;;;;;2.88;0.77;;;;;;;9.81;79.83;100129.31;6211100;23;20261;-88
2023/01/13 10:06:37;;;;;;;3.35;0.90;;;;;;;9.82;80.15;100144.19;6210160;23;20225;-88
2023/01/13 10:09:03;;;;;;;2.75;1.00;;;;;;;9.86;80.10;100144.69;6210903;23;20023;-87
2023/01/13 10:14:26;;;;;;;1.85;0.70;;;;;;;9.80;80.31;100135.59;6212446;23;20028;-88
2023/01/13 10:17:01;;;;;;;2.63;1.23;;;;;;;9.70;80.45;100142.78;6213521;23;20163;-88
2023/01/13 10:20:11;;;;;;;3.33;1.00;;;;;;;9.67;80.90;100140.47;6210252;23;20343;-88
2023/01/13 10:22:48;;;;;;;4.70;1.05;;;;;;;9.67;79.87;100128.09;6140925;23;20357;-88
2023/01/13 10:25:19;;;;;;;3.78;1.17;;;;;;;9.68;79.94;100126.28;6210995;23;20448;-88
2023/01/13 10:27:48;;;;;;;2.40;0.83;;;;;;;9.65;79.80;100126.59;6210578;23;20020;-88
2023/01/13 10:30:30;;;;;;;3.45;0.90;;;;;;;9.73;79.78;100122.19;6211772;23;20016;-88
2023/01/13 10:33:10;;;;;;;5.47;1.10;;;;;;;9.85;80.01;100127.22;6210318;23;20564;-88
2023/01/13 10:36:02;;;;;;;1.90;0.93;;;;;;;9.86;80.22;100126.22;6211182;23;20028;-88
2023/01/13 10:38:38;;;;;;;;;;;;;;;9.81;80.32;100137.25;6212257;23;20009;-88
2023/01/13 10:41:19;;;;;;;3.75;1.30;;;;;;;9.76;80.53;100127.16;6210688;23;19931;-88
2023/01/13 10:43:50;;;;;;;3.50;1.20;;;;;;;9.81;80.57;100121.41;6213274;23;20479;-88
2023/01/13 10:46:16;;;;;;;4.57;1.40;;;;;;;9.82;80.69;100127.50;6210906;23;20028;-88
2023/01/13 10:48:51;;;;;;;5.20;1.50;;;;;;;9.83;80.70;100132.63;6210224;23;20095;-88
2023/01/13 10:51:19;;;;;;;3.92;1.10;;;;;;;9.84;80.58;100128.19;6209384;23;20289;-88
2023/01/13 10:53:58;;;;;;;3.53;1.17;;;;;;;9.79;80.94;100141.84;6210409;23;20047;-87
2023/01/13 10:56:29;;;;;;;5.07;1.50;;;;;;;9.79;80.91;100126.81;6209967;23;20020;-88
2023/01/13 10:59:28;;;;;;;9.40;2.42;;;;;;;9.72;75.98;100139.00;6210669;23;20016;-88
2023/01/13 11:02:15;;;;;;;8.32;2.00;;;;;;;9.78;76.43;100129.66;6209556;23;20012;-88
2023/01/13 11:04:53;;;;;;;6.07;1.70;;;;;;;9.78;73.23;100140.22;6212423;23;20032;-88
2023/01/13 11:07:38;;;;;;;5.60;2.08;;;;;;;9.73;72.42;100140.69;6210352;23;20075;-88
2023/01/13 11:10:18;;;;;;;6.47;2.53;;;;;;;9.72;72.74;100141.63;6210833;23;20023;-89
2023/01/13 11:12:53;;;;;;;7.60;2.67;;;;;;;9.84;71.75;100144.84;6212513;23;20111;-88
2023/01/13 11:15:21;;;;;;;4.95;1.90;;;;;;;9.87;72.07;100139.28;6214296;23;20080;-88
2023/01/13 11:18:00;;;;;;;8.02;3.88;;;;;;;9.91;72.17;100129.22;6211774;23;20067;-90
2023/01/13 11:20:44;;;;;;;7.25;2.35;;;;;;;9.76;72.63;100139.53;6212125;23;20024;-90
2023/01/13 11:23:20;;;;;;;5.60;1.80;;;;;;;9.64;72.09;100140.78;6212822;23;20024;-90
2023/01/13 11:25:51;;;;;;;4.35;1.60;;;;;;;9.56;72.64;100150.31;6211189;23;20096;-90
2023/01/13 11:28:38;;;;;;;5.68;1.52;;;;;;;9.57;73.14;100154.59;6210911;23;20531;-87
2023/01/13 11:31:40;;;;;;;5.47;1.67;;;;;;;9.74;72.64;100152.06;6210646;23;20017;-87
2023/01/13 11:34:18;;;;;;;4.07;1.35;;;;;;;9.88;71.58;100140.09;6210427;23;20021;-88
2023/01/13 11:36:49;;;;;;;8.38;1.80;;;;;;;10.18;71.33;100151.97;6210902;23;20044;-88
2023/01/13 11:39:20;;;;;;;;;;;;;;;10.28;69.44;100146.56;6212327;23;20082;-89
2023/01/13 11:42:23;;;;;;;12.23;3.93;;;;;;;10.39;70.04;100144.50;6210030;23;19911;-88
2023/01/13 11:45:19;;;;;;;7.38;2.30;;;;;;;10.49;69.71;100138.25;6210370;23;20020;-88
2023/01/13 11:47:47;;;;;;;4.10;1.33;;;;;;;10.52;68.10;100151.13;6211983;23;20436;-88
2023/01/13 11:50:25;;;;;;;8.52;2.72;;;;;;;10.43;67.53;100147.63;6210376;23;20016;-87
2023/01/13 11:53:23;;;;;;;8.80;2.53;;;;;;;10.27;65.52;100150.19;6212821;23;20363;-88
2023/01/13 11:56:12;;;;;;;5.30;1.65;;;;;;;10.22;66.83;100153.28;6145454;23;20059;-88
2023/01/13 11:59:06;;;;;;;6.22;1.60;;;;;;;10.13;66.26;100164.81;6210337;23;20088;-88
2023/01/13 12:01:55;;;;;;;13.65;5.30;;;;;;;10.07;66.42;100153.06;6207278;23;20078;-88
2023/01/13 12:04:49;;;;;;;12.25;4.15;;;;;;;10.07;67.55;100154.88;6210669;23;20092;-88
2023/01/13 12:07:25;;;;;;;8.85;3.50;;;;;;;10.07;66.45;100152.25;6210816;23;20395;-87
2023/01/13 12:10:08;;;;;;;12.80;3.30;;;;;;;9.86;67.99;100165.81;6209722;23;20016;-88
2023/01/13 12:13:02;;;;;;;7.18;2.88;;;;;;;9.77;70.84;100167.56;6209952;23;20035;-88
2023/01/13 12:15:46;;;;;;;8.07;1.70;;;;;;;9.67;74.66;100164.22;6211609;23;20153;-89
2023/01/13 12:18:37;;;;;;;7.53;1.83;;;;;;;9.46;73.31;100167.19;6210505;23;20244;-89
2023/01/13 12:21:31;;;;;;;3.65;1.25;;;;;;;9.41;73.41;100166.84;6210006;23;20052;-88
2023/01/13 12:24:12;;;;;;;8.13;1.98;;;;;;;9.32;74.51;100164.16;6210359;23;20013;-89
2023/01/13 12:26:43;;;;;;;7.28;1.70;;;;;;;9.46;74.86;100164.56;6170050;23;20155;-88
2023/01/13 12:29:17;;;;;;;8.43;1.70;;;;;;;9.72;73.23;100160.13;6209411;23;20012;-88
2023/01/13 12:31:46;;;;;;;6.35;1.65;;;;;;;9.90;71.74;100144.22;6210116;23;20645;-89
2023/01/13 12:34:30;;;;;;;6.28;2.13;;;;;;;10.19;70.59;100154.44;6212260;23;20035;-90
2023/01/13 12:37:13;;;;;;;5.70;1.80;;;;;;;10.51;67.25;100149.47;6209344;23;20408;-89
2023/01/13 12:39:44;;;;;;;7.97;1.65;;;;;;;10.76;65.11;100148.56;6209365;23;20088;-89
2023/01/13 12:45:09;;;;;;;7.25;1.77;;;;;;;11.30;65.29;100142.81;6216679;23;20338;-87
2023/01/13 12:47:37;;;;;;;6.80;1.60;;;;;;;11.47;63.55;100143.63;6215256;23;20472;-86
2023/01/13 12:50:21;;;;;;;6.07;1.30;;;;;;;11.36;61.45;100144.78;6238119;23;20031;-88
2023/01/13 12:52:47;;;;;;;5.95;2.00;;;;;;;11.32;62.53;100147.94;6220567;23;20044;-86